sensor_id;sensor_type;location;lat;lon;timestamp;P1;durP1;ratioP1;P2;durP2;ratioP2
29120;SDS011;16191;49.548;8.658;2023-04-24T00:02:05;2.88;;;1.00;;
29120;SDS011;16191;49.548;8.658;2023-04-24T00:04:33;2.05;;;1.00;;
29120;SDS011;16191;49.548;8.658;2023-04-24T00:06:59;1.20;;;0.82;;
29120;SDS011;16191;49.548;8.658;2023-04-24T00:09:26;5.07;;;1.17;;
29120;SDS011;16191;49.548;8.658;2023-04-24T00:11:53;3.97;;;1.10;;
29120;SDS011;16191;49.548;8.658;2023-04-24T00:14:20;2.58;;;0.90;;
29120;SDS011;16191;49.548;8.658;2023-04-24T00:16:46;3.10;;;1.02;;
29120;SDS011;16191;49.548;8.658;2023-04-24T00:19:13;2.55;;;0.90;;
29120;SDS011;16191;49.548;8.658;2023-04-24T00:21:40;1.20;;;0.75;;
29120;SDS011;16191;49.548;8.658;2023-04-24T00:24:07;3.83;;;0.93;;
29120;SDS011;16191;49.548;8.658;2023-04-24T00:26:37;2.38;;;0.82;;
29120;SDS011;16191;49.548;8.658;2023-04-24T00:29:03;2.42;;;0.98;;
29120;SDS011;16191;49.548;8.658;2023-04-24T00:31:30;1.40;;;0.70;;
29120;SDS011;16191;49.548;8.658;2023-04-24T00:33:57;2.25;;;1.13;;
29120;SDS011;16191;49.548;8.658;2023-04-24T00:36:24;2.33;;;1.20;;
29120;SDS011;16191;49.548;8.658;2023-04-24T00:38:51;6.55;;;1.13;;
29120;SDS011;16191;49.548;8.658;2023-04-24T00:41:17;1.20;;;0.90;;
29120;SDS011;16191;49.548;8.658;2023-04-24T00:43:44;2.17;;;1.10;;
29120;SDS011;16191;49.548;8.658;2023-04-24T00:46:11;1.33;;;1.00;;
29120;SDS011;16191;49.548;8.658;2023-04-24T00:48:41;2.85;;;1.00;;
29120;SDS011;16191;49.548;8.658;2023-04-24T00:53:35;3.33;;;1.05;;
29120;SDS011;16191;49.548;8.658;2023-04-24T00:56:02;2.45;;;1.00;;
29120;SDS011;16191;49.548;8.658;2023-04-24T00:58:29;2.65;;;1.30;;
29120;SDS011;16191;49.548;8.658;2023-04-24T01:00:57;1.50;;;0.80;;
29120;SDS011;16191;49.548;8.658;2023-04-24T01:03:26;3.70;;;0.90;;
29120;SDS011;16191;49.548;8.658;2023-04-24T01:05:55;3.30;;;1.23;;
29120;SDS011;16191;49.548;8.658;2023-04-24T01:08:23;4.60;;;0.90;;
29120;SDS011;16191;49.548;8.658;2023-04-24T01:10:51;2.88;;;1.13;;
29120;SDS011;16191;49.548;8.658;2023-04-24T01:13:19;2.75;;;1.15;;
29120;SDS011;16191;49.548;8.658;2023-04-24T01:15:47;1.40;;;1.20;;
29120;SDS011;16191;49.548;8.658;2023-04-24T01:18:14;3.80;;;0.90;;
29120;SDS011;16191;49.548;8.658;2023-04-24T01:20:42;3.92;;;1.00;;
29120;SDS011;16191;49.548;8.658;2023-04-24T01:23:10;2.30;;;0.80;;
29120;SDS011;16191;49.548;8.658;2023-04-24T01:25:37;3.42;;;0.98;;
29120;SDS011;16191;49.548;8.658;2023-04-24T01:28:03;9.75;;;1.30;;
29120;SDS011;16191;49.548;8.658;2023-04-24T01:30:30;3.03;;;1.00;;
29120;SDS011;16191;49.548;8.658;2023-04-24T01:32:57;2.72;;;1.20;;
29120;SDS011;16191;49.548;8.658;2023-04-24T01:35:25;3.67;;;1.15;;
29120;SDS011;16191;49.548;8.658;2023-04-24T01:37:52;3.80;;;1.13;;
29120;SDS011;16191;49.548;8.658;2023-04-24T01:40:19;7.70;;;1.10;;
29120;SDS011;16191;49.548;8.658;2023-04-24T01:42:45;2.58;;;1.30;;
29120;SDS011;16191;49.548;8.658;2023-04-24T01:45:33;4.93;;;1.33;;
29120;SDS011;16191;49.548;8.658;2023-04-24T01:48:23;2.75;;;0.95;;
29120;SDS011;16191;49.548;8.658;2023-04-24T01:51:09;6.82;;;1.20;;
29120;SDS011;16191;49.548;8.658;2023-04-24T01:53:56;7.03;;;1.30;;
29120;SDS011;16191;49.548;8.658;2023-04-24T01:56:43;2.50;;;1.20;;
29120;SDS011;16191;49.548;8.658;2023-04-24T01:59:29;4.93;;;1.20;;
29120;SDS011;16191;49.548;8.658;2023-04-24T02:01:57;1.88;;;1.00;;
29120;SDS011;16191;49.548;8.658;2023-04-24T02:04:24;5.07;;;1.45;;
29120;SDS011;16191;49.548;8.658;2023-04-24T02:06:51;2.45;;;1.33;;
29120;SDS011;16191;49.548;8.658;2023-04-24T02:09:17;5.93;;;1.13;;
29120;SDS011;16191;49.548;8.658;2023-04-24T02:11:44;3.80;;;1.15;;
29120;SDS011;16191;49.548;8.658;2023-04-24T02:14:10;5.25;;;1.55;;
29120;SDS011;16191;49.548;8.658;2023-04-24T02:16:38;1.33;;;0.80;;
29120;SDS011;16191;49.548;8.658;2023-04-24T02:19:05;3.85;;;1.20;;
29120;SDS011;16191;49.548;8.658;2023-04-24T02:21:32;3.03;;;1.00;;
29120;SDS011;16191;49.548;8.658;2023-04-24T02:24:00;2.53;;;1.30;;
29120;SDS011;16191;49.548;8.658;2023-04-24T02:26:27;2.72;;;1.08;;
29120;SDS011;16191;49.548;8.658;2023-04-24T02:28:53;4.22;;;1.00;;
29120;SDS011;16191;49.548;8.658;2023-04-24T02:31:20;1.67;;;0.90;;
29120;SDS011;16191;49.548;8.658;2023-04-24T02:33:47;3.22;;;1.20;;
29120;SDS011;16191;49.548;8.658;2023-04-24T02:36:13;5.00;;;1.00;;
29120;SDS011;16191;49.548;8.658;2023-04-24T02:38:40;3.10;;;0.80;;
29120;SDS011;16191;49.548;8.658;2023-04-24T02:41:07;4.65;;;1.40;;
29120;SDS011;16191;49.548;8.658;2023-04-24T02:43:34;5.88;;;0.95;;
29120;SDS011;16191;49.548;8.658;2023-04-24T02:46:00;3.22;;;1.10;;
29120;SDS011;16191;49.548;8.658;2023-04-24T02:48:27;4.95;;;1.02;;
29120;SDS011;16191;49.548;8.658;2023-04-24T02:50:54;8.52;;;1.70;;
29120;SDS011;16191;49.548;8.658;2023-04-24T02:53:20;2.90;;;1.30;;
29120;SDS011;16191;49.548;8.658;2023-04-24T02:55:47;5.90;;;1.52;;
29120;SDS011;16191;49.548;8.658;2023-04-24T02:58:13;7.00;;;1.92;;
29120;SDS011;16191;49.548;8.658;2023-04-24T03:00:40;6.10;;;1.88;;
29120;SDS011;16191;49.548;8.658;2023-04-24T03:03:07;4.32;;;1.10;;
29120;SDS011;16191;49.548;8.658;2023-04-24T03:05:33;5.05;;;1.10;;
29120;SDS011;16191;49.548;8.658;2023-04-24T03:08:00;3.45;;;1.60;;
29120;SDS011;16191;49.548;8.658;2023-04-24T03:10:27;2.38;;;1.05;;
29120;SDS011;16191;49.548;8.658;2023-04-24T03:12:53;4.43;;;1.45;;
29120;SDS011;16191;49.548;8.658;2023-04-24T03:15:21;2.67;;;1.10;;
29120;SDS011;16191;49.548;8.658;2023-04-24T03:17:48;3.58;;;1.20;;
29120;SDS011;16191;49.548;8.658;2023-04-24T03:20:15;2.03;;;1.20;;
29120;SDS011;16191;49.548;8.658;2023-04-24T03:22:42;4.13;;;1.50;;
29120;SDS011;16191;49.548;8.658;2023-04-24T03:25:10;2.88;;;1.38;;
29120;SDS011;16191;49.548;8.658;2023-04-24T03:27:37;3.15;;;1.30;;
29120;SDS011;16191;49.548;8.658;2023-04-24T03:30:10;2.60;;;1.20;;
29120;SDS011;16191;49.548;8.658;2023-04-24T03:32:54;2.95;;;1.10;;
29120;SDS011;16191;49.548;8.658;2023-04-24T03:35:25;4.72;;;1.30;;
29120;SDS011;16191;49.548;8.658;2023-04-24T03:37:52;5.45;;;1.33;;
29120;SDS011;16191;49.548;8.658;2023-04-24T03:40:48;3.05;;;1.25;;
29120;SDS011;16191;49.548;8.658;2023-04-24T03:43:53;3.72;;;1.20;;
29120;SDS011;16191;49.548;8.658;2023-04-24T03:46:19;2.85;;;1.05;;
29120;SDS011;16191;49.548;8.658;2023-04-24T03:48:52;3.47;;;1.50;;
29120;SDS011;16191;49.548;8.658;2023-04-24T03:51:22;7.80;;;1.55;;
29120;SDS011;16191;49.548;8.658;2023-04-24T03:53:52;4.28;;;1.60;;
29120;SDS011;16191;49.548;8.658;2023-04-24T03:56:21;5.10;;;1.88;;
29120;SDS011;16191;49.548;8.658;2023-04-24T03:58:47;3.00;;;1.60;;
29120;SDS011;16191;49.548;8.658;2023-04-24T04:01:14;5.57;;;1.38;;
29120;SDS011;16191;49.548;8.658;2023-04-24T04:03:49;3.40;;;1.50;;
29120;SDS011;16191;49.548;8.658;2023-04-24T04:06:19;5.10;;;1.70;;
29120;SDS011;16191;49.548;8.658;2023-04-24T04:08:48;6.82;;;2.00;;
29120;SDS011;16191;49.548;8.658;2023-04-24T04:11:15;7.18;;;1.80;;
29120;SDS011;16191;49.548;8.658;2023-04-24T04:13:43;6.25;;;2.00;;
29120;SDS011;16191;49.548;8.658;2023-04-24T04:16:10;2.53;;;1.63;;
29120;SDS011;16191;49.548;8.658;2023-04-24T04:18:37;2.67;;;1.45;;
29120;SDS011;16191;49.548;8.658;2023-04-24T04:21:05;3.20;;;1.63;;
29120;SDS011;16191;49.548;8.658;2023-04-24T04:23:33;3.75;;;1.50;;
29120;SDS011;16191;49.548;8.658;2023-04-24T04:26:08;3.78;;;1.48;;
29120;SDS011;16191;49.548;8.658;2023-04-24T04:28:48;3.70;;;1.60;;
29120;SDS011;16191;49.548;8.658;2023-04-24T04:31:15;3.13;;;1.63;;
29120;SDS011;16191;49.548;8.658;2023-04-24T04:33:41;5.28;;;1.70;;
29120;SDS011;16191;49.548;8.658;2023-04-24T04:36:08;1.90;;;1.60;;
29120;SDS011;16191;49.548;8.658;2023-04-24T04:38:40;4.28;;;1.65;;
29120;SDS011;16191;49.548;8.658;2023-04-24T04:41:23;4.78;;;2.10;;
29120;SDS011;16191;49.548;8.658;2023-04-24T04:43:49;3.40;;;1.77;;
29120;SDS011;16191;49.548;8.658;2023-04-24T04:46:17;3.83;;;1.83;;
29120;SDS011;16191;49.548;8.658;2023-04-24T04:48:52;5.75;;;2.05;;
29120;SDS011;16191;49.548;8.658;2023-04-24T04:51:20;3.00;;;2.22;;
29120;SDS011;16191;49.548;8.658;2023-04-24T04:53:47;4.47;;;2.05;;
29120;SDS011;16191;49.548;8.658;2023-04-24T04:56:13;2.03;;;1.60;;
29120;SDS011;16191;49.548;8.658;2023-04-24T04:58:44;2.95;;;2.00;;
29120;SDS011;16191;49.548;8.658;2023-04-24T05:01:14;2.90;;;2.08;;
29120;SDS011;16191;49.548;8.658;2023-04-24T05:06:14;6.50;;;2.22;;
29120;SDS011;16191;49.548;8.658;2023-04-24T05:08:42;2.83;;;1.88;;
29120;SDS011;16191;49.548;8.658;2023-04-24T05:11:16;7.50;;;2.30;;
29120;SDS011;16191;49.548;8.658;2023-04-24T05:13:43;4.20;;;2.10;;
29120;SDS011;16191;49.548;8.658;2023-04-24T05:18:52;3.42;;;2.10;;
29120;SDS011;16191;49.548;8.658;2023-04-24T05:21:23;4.47;;;2.20;;
29120;SDS011;16191;49.548;8.658;2023-04-24T05:23:51;5.40;;;2.15;;
29120;SDS011;16191;49.548;8.658;2023-04-24T05:26:30;2.08;;;1.88;;
29120;SDS011;16191;49.548;8.658;2023-04-24T05:28:58;3.67;;;2.20;;
29120;SDS011;16191;49.548;8.658;2023-04-24T05:31:25;6.18;;;3.00;;
29120;SDS011;16191;49.548;8.658;2023-04-24T05:33:52;5.85;;;2.60;;
29120;SDS011;16191;49.548;8.658;2023-04-24T05:36:18;3.53;;;2.35;;
29120;SDS011;16191;49.548;8.658;2023-04-24T05:38:45;2.45;;;2.00;;
29120;SDS011;16191;49.548;8.658;2023-04-24T05:41:12;7.40;;;2.50;;
29120;SDS011;16191;49.548;8.658;2023-04-24T05:43:38;5.90;;;2.22;;
29120;SDS011;16191;49.548;8.658;2023-04-24T05:46:05;4.05;;;2.38;;
29120;SDS011;16191;49.548;8.658;2023-04-24T05:48:32;4.97;;;2.40;;
29120;SDS011;16191;49.548;8.658;2023-04-24T05:51:02;3.70;;;2.72;;
29120;SDS011;16191;49.548;8.658;2023-04-24T05:53:28;4.32;;;2.72;;
29120;SDS011;16191;49.548;8.658;2023-04-24T05:55:55;7.25;;;2.80;;
29120;SDS011;16191;49.548;8.658;2023-04-24T05:58:22;7.40;;;2.50;;
29120;SDS011;16191;49.548;8.658;2023-04-24T06:00:49;3.90;;;2.70;;
29120;SDS011;16191;49.548;8.658;2023-04-24T06:03:16;5.07;;;2.88;;
29120;SDS011;16191;49.548;8.658;2023-04-24T06:05:43;4.85;;;3.17;;
29120;SDS011;16191;49.548;8.658;2023-04-24T06:08:10;5.32;;;2.50;;
29120;SDS011;16191;49.548;8.658;2023-04-24T06:10:38;3.88;;;2.30;;
29120;SDS011;16191;49.548;8.658;2023-04-24T06:13:07;6.68;;;2.70;;
29120;SDS011;16191;49.548;8.658;2023-04-24T06:15:37;5.07;;;2.88;;
29120;SDS011;16191;49.548;8.658;2023-04-24T06:18:06;5.97;;;3.40;;
29120;SDS011;16191;49.548;8.658;2023-04-24T06:20:33;4.25;;;2.83;;
29120;SDS011;16191;49.548;8.658;2023-04-24T06:23:00;7.45;;;2.90;;
29120;SDS011;16191;49.548;8.658;2023-04-24T06:25:28;6.18;;;4.20;;
29120;SDS011;16191;49.548;8.658;2023-04-24T06:27:55;7.00;;;3.85;;
29120;SDS011;16191;49.548;8.658;2023-04-24T06:30:22;5.68;;;3.85;;
29120;SDS011;16191;49.548;8.658;2023-04-24T06:32:48;5.70;;;4.07;;
29120;SDS011;16191;49.548;8.658;2023-04-24T06:35:15;8.40;;;3.70;;
29120;SDS011;16191;49.548;8.658;2023-04-24T06:37:42;4.35;;;3.22;;
29120;SDS011;16191;49.548;8.658;2023-04-24T06:40:09;7.00;;;3.83;;
29120;SDS011;16191;49.548;8.658;2023-04-24T06:42:36;4.40;;;3.42;;
29120;SDS011;16191;49.548;8.658;2023-04-24T06:45:03;5.93;;;3.53;;
29120;SDS011;16191;49.548;8.658;2023-04-24T06:47:30;6.95;;;3.90;;
29120;SDS011;16191;49.548;8.658;2023-04-24T06:49:57;7.00;;;3.67;;
29120;SDS011;16191;49.548;8.658;2023-04-24T06:52:23;6.35;;;4.35;;
29120;SDS011;16191;49.548;8.658;2023-04-24T06:54:50;7.13;;;3.83;;
29120;SDS011;16191;49.548;8.658;2023-04-24T06:57:17;4.65;;;3.88;;
29120;SDS011;16191;49.548;8.658;2023-04-24T06:59:44;5.90;;;3.60;;
29120;SDS011;16191;49.548;8.658;2023-04-24T07:02:11;6.40;;;3.00;;
29120;SDS011;16191;49.548;8.658;2023-04-24T07:04:37;4.90;;;2.83;;
29120;SDS011;16191;49.548;8.658;2023-04-24T07:07:04;3.22;;;2.55;;
29120;SDS011;16191;49.548;8.658;2023-04-24T07:09:32;2.83;;;2.33;;
29120;SDS011;16191;49.548;8.658;2023-04-24T07:12:01;3.72;;;2.38;;
29120;SDS011;16191;49.548;8.658;2023-04-24T07:14:27;2.35;;;1.88;;
29120;SDS011;16191;49.548;8.658;2023-04-24T07:16:54;2.47;;;1.70;;
29120;SDS011;16191;49.548;8.658;2023-04-24T07:19:20;4.28;;;1.77;;
29120;SDS011;16191;49.548;8.658;2023-04-24T07:21:47;4.90;;;1.70;;
29120;SDS011;16191;49.548;8.658;2023-04-24T07:24:13;5.00;;;1.30;;
29120;SDS011;16191;49.548;8.658;2023-04-24T07:26:40;2.42;;;1.58;;
29120;SDS011;16191;49.548;8.658;2023-04-24T07:29:07;2.50;;;1.65;;
29120;SDS011;16191;49.548;8.658;2023-04-24T07:31:34;2.40;;;1.17;;
29120;SDS011;16191;49.548;8.658;2023-04-24T07:34:00;2.78;;;1.52;;
29120;SDS011;16191;49.548;8.658;2023-04-24T07:36:27;3.53;;;1.70;;
29120;SDS011;16191;49.548;8.658;2023-04-24T07:38:54;5.78;;;2.20;;
29120;SDS011;16191;49.548;8.658;2023-04-24T07:41:22;3.22;;;1.20;;
29120;SDS011;16191;49.548;8.658;2023-04-24T07:43:50;2.05;;;1.30;;
29120;SDS011;16191;49.548;8.658;2023-04-24T07:46:18;3.00;;;1.42;;
29120;SDS011;16191;49.548;8.658;2023-04-24T07:48:45;3.50;;;1.50;;
29120;SDS011;16191;49.548;8.658;2023-04-24T07:51:20;3.78;;;1.58;;
29120;SDS011;16191;49.548;8.658;2023-04-24T07:53:47;1.92;;;1.40;;
29120;SDS011;16191;49.548;8.658;2023-04-24T07:56:13;2.50;;;1.50;;
29120;SDS011;16191;49.548;8.658;2023-04-24T07:58:40;2.10;;;1.50;;
29120;SDS011;16191;49.548;8.658;2023-04-24T08:01:06;3.03;;;1.70;;
29120;SDS011;16191;49.548;8.658;2023-04-24T08:03:33;3.72;;;1.60;;
29120;SDS011;16191;49.548;8.658;2023-04-24T08:06:00;2.20;;;1.60;;
29120;SDS011;16191;49.548;8.658;2023-04-24T08:08:27;2.40;;;1.70;;
29120;SDS011;16191;49.548;8.658;2023-04-24T08:10:53;2.65;;;1.88;;
29120;SDS011;16191;49.548;8.658;2023-04-24T08:13:21;4.95;;;1.75;;
29120;SDS011;16191;49.548;8.658;2023-04-24T08:15:47;3.78;;;1.80;;
29120;SDS011;16191;49.548;8.658;2023-04-24T08:18:14;6.38;;;2.13;;
29120;SDS011;16191;49.548;8.658;2023-04-24T08:20:43;3.47;;;2.00;;
29120;SDS011;16191;49.548;8.658;2023-04-24T08:23:11;5.10;;;2.05;;
29120;SDS011;16191;49.548;8.658;2023-04-24T08:25:37;3.00;;;1.55;;
29120;SDS011;16191;49.548;8.658;2023-04-24T08:28:05;2.25;;;1.63;;
29120;SDS011;16191;49.548;8.658;2023-04-24T08:30:32;4.40;;;2.10;;
29120;SDS011;16191;49.548;8.658;2023-04-24T08:32:58;2.50;;;1.70;;
29120;SDS011;16191;49.548;8.658;2023-04-24T08:35:25;2.97;;;2.25;;
29120;SDS011;16191;49.548;8.658;2023-04-24T08:37:52;6.15;;;1.90;;
29120;SDS011;16191;49.548;8.658;2023-04-24T08:40:21;3.03;;;2.05;;
29120;SDS011;16191;49.548;8.658;2023-04-24T08:42:54;4.40;;;1.83;;
29120;SDS011;16191;49.548;8.658;2023-04-24T08:45:22;3.97;;;1.85;;
29120;SDS011;16191;49.548;8.658;2023-04-24T08:47:49;4.55;;;2.22;;
29120;SDS011;16191;49.548;8.658;2023-04-24T08:50:17;3.83;;;2.03;;
29120;SDS011;16191;49.548;8.658;2023-04-24T08:52:43;2.72;;;1.63;;
29120;SDS011;16191;49.548;8.658;2023-04-24T08:55:10;3.00;;;2.03;;
29120;SDS011;16191;49.548;8.658;2023-04-24T08:57:37;12.38;;;2.03;;
29120;SDS011;16191;49.548;8.658;2023-04-24T09:00:06;6.85;;;1.88;;
29120;SDS011;16191;49.548;8.658;2023-04-24T09:02:38;2.13;;;1.70;;
29120;SDS011;16191;49.548;8.658;2023-04-24T09:05:08;2.53;;;1.90;;
29120;SDS011;16191;49.548;8.658;2023-04-24T09:07:36;6.03;;;2.22;;
29120;SDS011;16191;49.548;8.658;2023-04-24T09:10:06;2.47;;;1.80;;
29120;SDS011;16191;49.548;8.658;2023-04-24T09:12:34;4.30;;;1.98;;
29120;SDS011;16191;49.548;8.658;2023-04-24T09:15:00;4.07;;;2.38;;
29120;SDS011;16191;49.548;8.658;2023-04-24T09:17:33;6.88;;;2.30;;
29120;SDS011;16191;49.548;8.658;2023-04-24T09:20:00;4.28;;;2.00;;
29120;SDS011;16191;49.548;8.658;2023-04-24T09:22:29;1.70;;;1.48;;
29120;SDS011;16191;49.548;8.658;2023-04-24T09:25:01;4.30;;;1.73;;
29120;SDS011;16191;49.548;8.658;2023-04-24T09:27:29;3.50;;;1.60;;
29120;SDS011;16191;49.548;8.658;2023-04-24T09:29:57;2.17;;;1.58;;
29120;SDS011;16191;49.548;8.658;2023-04-24T09:32:24;2.25;;;1.65;;
29120;SDS011;16191;49.548;8.658;2023-04-24T09:35:08;5.28;;;1.90;;
29120;SDS011;16191;49.548;8.658;2023-04-24T09:37:36;3.60;;;1.70;;
29120;SDS011;16191;49.548;8.658;2023-04-24T09:40:10;3.67;;;1.90;;
29120;SDS011;16191;49.548;8.658;2023-04-24T09:42:54;4.65;;;1.88;;
29120;SDS011;16191;49.548;8.658;2023-04-24T09:45:27;7.22;;;2.17;;
29120;SDS011;16191;49.548;8.658;2023-04-24T09:47:55;6.45;;;2.03;;
29120;SDS011;16191;49.548;8.658;2023-04-24T09:50:21;4.18;;;1.80;;
29120;SDS011;16191;49.548;8.658;2023-04-24T09:52:59;2.85;;;1.77;;
29120;SDS011;16191;49.548;8.658;2023-04-24T09:55:29;5.55;;;2.42;;
29120;SDS011;16191;49.548;8.658;2023-04-24T09:57:56;7.75;;;2.30;;
29120;SDS011;16191;49.548;8.658;2023-04-24T10:00:30;2.30;;;1.73;;
29120;SDS011;16191;49.548;8.658;2023-04-24T10:02:58;5.20;;;1.90;;
29120;SDS011;16191;49.548;8.658;2023-04-24T10:05:29;4.35;;;1.80;;
29120;SDS011;16191;49.548;8.658;2023-04-24T10:08:07;4.03;;;1.63;;
29120;SDS011;16191;49.548;8.658;2023-04-24T10:10:38;4.40;;;1.95;;
29120;SDS011;16191;49.548;8.658;2023-04-24T10:13:09;4.72;;;1.90;;
29120;SDS011;16191;49.548;8.658;2023-04-24T10:15:43;4.45;;;2.00;;
29120;SDS011;16191;49.548;8.658;2023-04-24T10:18:10;6.28;;;2.40;;
29120;SDS011;16191;49.548;8.658;2023-04-24T10:20:38;3.42;;;1.85;;
29120;SDS011;16191;49.548;8.658;2023-04-24T10:23:06;3.08;;;1.77;;
29120;SDS011;16191;49.548;8.658;2023-04-24T10:25:34;1.98;;;1.70;;
29120;SDS011;16191;49.548;8.658;2023-04-24T10:28:03;2.97;;;1.70;;
29120;SDS011;16191;49.548;8.658;2023-04-24T10:30:31;2.05;;;1.42;;
29120;SDS011;16191;49.548;8.658;2023-04-24T10:33:02;4.40;;;1.63;;
29120;SDS011;16191;49.548;8.658;2023-04-24T10:35:34;2.97;;;1.50;;
29120;SDS011;16191;49.548;8.658;2023-04-24T10:38:14;2.55;;;1.52;;
29120;SDS011;16191;49.548;8.658;2023-04-24T10:40:44;4.82;;;1.90;;
29120;SDS011;16191;49.548;8.658;2023-04-24T10:43:11;5.22;;;1.65;;
29120;SDS011;16191;49.548;8.658;2023-04-24T10:45:59;3.47;;;1.27;;
29120;SDS011;16191;49.548;8.658;2023-04-24T10:48:28;5.28;;;1.85;;
29120;SDS011;16191;49.548;8.658;2023-04-24T10:50:55;2.35;;;1.30;;
29120;SDS011;16191;49.548;8.658;2023-04-24T10:53:22;3.53;;;1.40;;
29120;SDS011;16191;49.548;8.658;2023-04-24T10:56:02;3.13;;;1.65;;
29120;SDS011;16191;49.548;8.658;2023-04-24T11:01:04;4.60;;;1.60;;
29120;SDS011;16191;49.548;8.658;2023-04-24T11:03:32;2.30;;;1.70;;
29120;SDS011;16191;49.548;8.658;2023-04-24T11:06:01;5.35;;;1.75;;
29120;SDS011;16191;49.548;8.658;2023-04-24T11:08:39;3.13;;;1.63;;
29120;SDS011;16191;49.548;8.658;2023-04-24T11:18:59;4.82;;;2.10;;
29120;SDS011;16191;49.548;8.658;2023-04-24T11:24:21;3.15;;;1.60;;
29120;SDS011;16191;49.548;8.658;2023-04-24T11:32:31;3.47;;;2.08;;
29120;SDS011;16191;49.548;8.658;2023-04-24T11:35:01;6.60;;;2.45;;
29120;SDS011;16191;49.548;8.658;2023-04-24T11:37:48;4.38;;;2.22;;
29120;SDS011;16191;49.548;8.658;2023-04-24T11:40:36;4.03;;;2.42;;
29120;SDS011;16191;49.548;8.658;2023-04-24T11:43:04;6.00;;;2.50;;
29120;SDS011;16191;49.548;8.658;2023-04-24T11:45:33;4.28;;;2.28;;
29120;SDS011;16191;49.548;8.658;2023-04-24T11:48:02;6.63;;;2.33;;
29120;SDS011;16191;49.548;8.658;2023-04-24T11:50:29;5.05;;;2.38;;
29120;SDS011;16191;49.548;8.658;2023-04-24T11:52:56;6.07;;;2.20;;
29120;SDS011;16191;49.548;8.658;2023-04-24T11:55:27;11.02;;;2.97;;
29120;SDS011;16191;49.548;8.658;2023-04-24T11:57:56;4.32;;;2.20;;
29120;SDS011;16191;49.548;8.658;2023-04-24T12:00:25;4.00;;;2.00;;
29120;SDS011;16191;49.548;8.658;2023-04-24T12:03:09;4.22;;;2.50;;
29120;SDS011;16191;49.548;8.658;2023-04-24T12:05:38;6.28;;;2.53;;
29120;SDS011;16191;49.548;8.658;2023-04-24T12:08:06;8.85;;;3.17;;
29120;SDS011;16191;49.548;8.658;2023-04-24T12:10:32;5.38;;;2.80;;
29120;SDS011;16191;49.548;8.658;2023-04-24T12:13:00;5.15;;;2.42;;
29120;SDS011;16191;49.548;8.658;2023-04-24T12:15:27;5.82;;;2.63;;
29120;SDS011;16191;49.548;8.658;2023-04-24T12:17:54;7.65;;;3.00;;
29120;SDS011;16191;49.548;8.658;2023-04-24T12:20:32;5.82;;;2.45;;
29120;SDS011;16191;49.548;8.658;2023-04-24T12:22:59;6.40;;;2.35;;
29120;SDS011;16191;49.548;8.658;2023-04-24T12:25:28;5.10;;;2.60;;
29120;SDS011;16191;49.548;8.658;2023-04-24T12:30:42;7.97;;;2.65;;
29120;SDS011;16191;49.548;8.658;2023-04-24T12:33:11;4.00;;;2.70;;
29120;SDS011;16191;49.548;8.658;2023-04-24T12:35:40;7.80;;;2.75;;
29120;SDS011;16191;49.548;8.658;2023-04-24T12:38:08;3.28;;;2.38;;
29120;SDS011;16191;49.548;8.658;2023-04-24T12:40:39;3.90;;;2.25;;
29120;SDS011;16191;49.548;8.658;2023-04-24T12:43:17;9.95;;;2.63;;
29120;SDS011;16191;49.548;8.658;2023-04-24T12:45:47;7.30;;;2.67;;
29120;SDS011;16191;49.548;8.658;2023-04-24T12:48:14;6.60;;;2.78;;
29120;SDS011;16191;49.548;8.658;2023-04-24T12:50:41;9.30;;;2.80;;
29120;SDS011;16191;49.548;8.658;2023-04-24T12:55:37;5.80;;;2.70;;
29120;SDS011;16191;49.548;8.658;2023-04-24T12:58:04;7.13;;;2.70;;
29120;SDS011;16191;49.548;8.658;2023-04-24T13:00:31;8.25;;;3.03;;
29120;SDS011;16191;49.548;8.658;2023-04-24T13:02:58;5.00;;;2.28;;
29120;SDS011;16191;49.548;8.658;2023-04-24T13:05:24;5.60;;;2.72;;
29120;SDS011;16191;49.548;8.658;2023-04-24T13:07:51;9.45;;;2.83;;
29120;SDS011;16191;49.548;8.658;2023-04-24T13:10:18;8.07;;;2.60;;
29120;SDS011;16191;49.548;8.658;2023-04-24T13:12:45;5.93;;;2.78;;
29120;SDS011;16191;49.548;8.658;2023-04-24T13:15:12;3.63;;;2.20;;
29120;SDS011;16191;49.548;8.658;2023-04-24T13:17:39;6.30;;;2.80;;
29120;SDS011;16191;49.548;8.658;2023-04-24T13:20:06;6.97;;;2.67;;
29120;SDS011;16191;49.548;8.658;2023-04-24T13:22:33;6.22;;;2.67;;
29120;SDS011;16191;49.548;8.658;2023-04-24T13:24:59;6.03;;;2.97;;
29120;SDS011;16191;49.548;8.658;2023-04-24T13:27:27;8.70;;;3.03;;
29120;SDS011;16191;49.548;8.658;2023-04-24T13:29:54;5.00;;;2.75;;
29120;SDS011;16191;49.548;8.658;2023-04-24T13:32:20;4.15;;;2.28;;
29120;SDS011;16191;49.548;8.658;2023-04-24T13:34:47;5.47;;;2.67;;
29120;SDS011;16191;49.548;8.658;2023-04-24T13:37:13;5.50;;;2.30;;
29120;SDS011;16191;49.548;8.658;2023-04-24T13:39:40;7.53;;;2.22;;
29120;SDS011;16191;49.548;8.658;2023-04-24T13:42:08;3.45;;;2.15;;
29120;SDS011;16191;49.548;8.658;2023-04-24T13:44:34;6.30;;;2.53;;
29120;SDS011;16191;49.548;8.658;2023-04-24T13:47:01;5.55;;;2.20;;
29120;SDS011;16191;49.548;8.658;2023-04-24T13:49:28;6.40;;;2.78;;
29120;SDS011;16191;49.548;8.658;2023-04-24T13:51:55;4.47;;;2.50;;
29120;SDS011;16191;49.548;8.658;2023-04-24T13:54:22;5.35;;;2.60;;
29120;SDS011;16191;49.548;8.658;2023-04-24T13:56:51;6.82;;;3.03;;
29120;SDS011;16191;49.548;8.658;2023-04-24T13:59:19;4.03;;;2.40;;
29120;SDS011;16191;49.548;8.658;2023-04-24T14:01:47;4.90;;;2.55;;
29120;SDS011;16191;49.548;8.658;2023-04-24T14:04:14;4.82;;;2.30;;
29120;SDS011;16191;49.548;8.658;2023-04-24T14:06:41;4.95;;;2.42;;
29120;SDS011;16191;49.548;8.658;2023-04-24T14:09:07;4.10;;;2.55;;
29120;SDS011;16191;49.548;8.658;2023-04-24T14:11:34;11.40;;;3.45;;
29120;SDS011;16191;49.548;8.658;2023-04-24T14:14:01;6.32;;;2.85;;
29120;SDS011;16191;49.548;8.658;2023-04-24T14:16:29;5.93;;;2.55;;
29120;SDS011;16191;49.548;8.658;2023-04-24T14:18:57;6.55;;;2.70;;
29120;SDS011;16191;49.548;8.658;2023-04-24T14:21:23;3.20;;;2.20;;
29120;SDS011;16191;49.548;8.658;2023-04-24T14:23:50;4.57;;;2.50;;
29120;SDS011;16191;49.548;8.658;2023-04-24T14:26:17;8.73;;;2.35;;
29120;SDS011;16191;49.548;8.658;2023-04-24T14:28:43;5.28;;;2.15;;
29120;SDS011;16191;49.548;8.658;2023-04-24T14:31:11;6.15;;;1.83;;
29120;SDS011;16191;49.548;8.658;2023-04-24T14:33:37;7.85;;;2.88;;
29120;SDS011;16191;49.548;8.658;2023-04-24T14:36:04;5.47;;;2.75;;
29120;SDS011;16191;49.548;8.658;2023-04-24T14:38:31;4.65;;;2.80;;
29120;SDS011;16191;49.548;8.658;2023-04-24T14:40:58;6.20;;;2.38;;
29120;SDS011;16191;49.548;8.658;2023-04-24T14:43:34;4.78;;;2.42;;
29120;SDS011;16191;49.548;8.658;2023-04-24T14:46:02;8.02;;;2.92;;
29120;SDS011;16191;49.548;8.658;2023-04-24T14:48:29;5.57;;;2.90;;
29120;SDS011;16191;49.548;8.658;2023-04-24T14:50:56;8.88;;;2.88;;
29120;SDS011;16191;49.548;8.658;2023-04-24T14:53:23;4.47;;;2.13;;
29120;SDS011;16191;49.548;8.658;2023-04-24T14:55:49;6.82;;;2.53;;
29120;SDS011;16191;49.548;8.658;2023-04-24T14:58:16;5.55;;;2.63;;
29120;SDS011;16191;49.548;8.658;2023-04-24T15:00:43;7.43;;;2.13;;
29120;SDS011;16191;49.548;8.658;2023-04-24T15:03:09;7.53;;;1.98;;
29120;SDS011;16191;49.548;8.658;2023-04-24T15:05:36;5.97;;;2.38;;
29120;SDS011;16191;49.548;8.658;2023-04-24T15:08:04;3.20;;;2.08;;
29120;SDS011;16191;49.548;8.658;2023-04-24T15:10:30;4.10;;;2.00;;
29120;SDS011;16191;49.548;8.658;2023-04-24T15:12:57;2.83;;;2.20;;
29120;SDS011;16191;49.548;8.658;2023-04-24T15:15:23;3.30;;;2.00;;
29120;SDS011;16191;49.548;8.658;2023-04-24T15:17:50;3.60;;;2.35;;
29120;SDS011;16191;49.548;8.658;2023-04-24T15:20:17;5.28;;;2.08;;
29120;SDS011;16191;49.548;8.658;2023-04-24T15:22:46;5.75;;;2.30;;
29120;SDS011;16191;49.548;8.658;2023-04-24T15:25:16;5.47;;;2.13;;
29120;SDS011;16191;49.548;8.658;2023-04-24T15:27:43;6.00;;;1.83;;
29120;SDS011;16191;49.548;8.658;2023-04-24T15:30:11;3.25;;;1.80;;